Time;durP1;ratioP1;P1;durP2;ratioP2;P2;SDS_P1;SDS_P2;PMS_P1;PMS_P2;Temp;Humidity;BMP_temperature;BMP_pressure;BME280_temperature;BME280_humidity;BME280_pressure;Samples;Min_cycle;Max_cycle;Signal;HPM_P1;HPM_P2
2019/12/07 00:01:10;;;;;;;2.95;2.57;;;;;;;19.83;40.45;100173.28;;;;-54
2019/12/07 00:04:10;;;;;;;2.99;2.66;;;;;;;19.81;40.44;100172.97;;;;-54
2019/12/07 00:07:10;;;;;;;2.61;2.41;;;;;;;19.80;40.44;100175.17;;;;-54
2019/12/07 00:10:10;;;;;;;2.90;2.60;;;;;;;19.79;40.44;100165.01;;;;-55
2019/12/07 00:13:10;;;;;;;2.79;2.53;;;;;;;19.78;40.49;100161.28;;;;-50
2019/12/07 00:16:10;;;;;;;2.57;2.37;;;;;;;19.75;40.54;100163.11;;;;-45
2019/12/07 00:19:10;;;;;;;2.75;2.43;;;;;;;19.72;40.52;100154.92;;;;-56
2019/12/07 00:22:10;;;;;;;2.73;2.53;;;;;;;19.70;40.47;100149.02;;;;-45
2019/12/07 00:25:10;;;;;;;2.70;2.50;;;;;;;19.70;40.51;100150.72;;;;-49
2019/12/07 00:28:10;;;;;;;2.54;2.34;;;;;;;19.68;40.57;100150.41;;;;-55
2019/12/07 00:31:10;;;;;;;2.79;2.59;;;;;;;19.67;40.51;100151.48;;;;-49
2019/12/07 00:34:10;;;;;;;2.75;2.52;;;;;;;19.66;40.59;100151.54;;;;-50
2019/12/07 00:37:10;;;;;;;2.63;2.43;;;;;;;19.64;40.51;100154.44;;;;-50
2019/12/07 00:40:10;;;;;;;2.73;2.53;;;;;;;19.62;40.54;100159.05;;;;-45
2019/12/07 00:43:10;;;;;;;2.71;2.51;;;;;;;19.61;40.59;100155.09;;;;-49
2019/12/07 00:46:10;;;;;;;2.74;2.54;;;;;;;19.60;40.56;100160.66;;;;-48
2019/12/07 00:49:10;;;;;;;2.82;2.54;;;;;;;19.58;40.60;100154.24;;;;-54
2019/12/07 00:52:10;;;;;;;2.70;2.50;;;;;;;19.56;40.65;100156.24;;;;-56
2019/12/07 00:55:10;;;;;;;2.62;2.42;;;;;;;19.56;40.63;100158.42;;;;-49
2019/12/07 00:58:10;;;;;;;2.61;2.39;;;;;;;19.54;40.62;100148.96;;;;-49
2019/12/07 01:01:10;;;;;;;2.67;2.47;;;;;;;19.53;40.63;100148.52;;;;-45
2019/12/07 01:04:10;;;;;;;2.51;2.31;;;;;;;19.52;40.65;100154.17;;;;-45
2019/12/07 01:08:37;;;;;;;2.66;2.44;;;;;;;19.51;40.65;100151.45;;;;-45
2019/12/07 01:11:10;;;;;;;2.69;2.39;;;;;;;19.49;40.67;100149.30;;;;-45
2019/12/07 01:14:10;;;;;;;2.59;2.39;;;;;;;19.48;40.69;100148.89;;;;-46
2019/12/07 01:17:10;;;;;;;2.54;2.34;;;;;;;19.47;40.69;100155.48;;;;-46
2019/12/07 01:20:10;;;;;;;2.49;2.29;;;;;;;19.46;40.68;100154.00;;;;-45
2019/12/07 01:23:10;;;;;;;2.50;2.30;;;;;;;19.45;40.75;100155.07;;;;-45
2019/12/07 01:26:10;;;;;;;2.60;2.40;;;;;;;19.43;40.75;100148.86;;;;-45
2019/12/07 01:29:10;;;;;;;2.60;2.40;;;;;;;19.41;40.72;100142.72;;;;-49
2019/12/07 01:32:10;;;;;;;2.61;2.41;;;;;;;19.39;40.75;100135.74;;;;-50
2019/12/07 01:35:10;;;;;;;2.44;2.24;;;;;;;19.38;40.75;100145.52;;;;-49
2019/12/07 01:38:10;;;;;;;2.40;2.20;;;;;;;19.36;40.81;100144.87;;;;-49
2019/12/07 01:41:10;;;;;;;2.40;2.20;;;;;;;19.36;40.84;100151.93;;;;-46
2019/12/07 01:44:10;;;;;;;2.47;2.27;;;;;;;19.35;40.84;100168.41;;;;-45
2019/12/07 01:47:10;;;;;;;2.41;2.21;;;;;;;19.34;40.86;100162.67;;;;-49
2019/12/07 01:50:10;;;;;;;2.61;2.41;;;;;;;19.33;40.88;100167.75;;;;-49
2019/12/07 01:53:10;;;;;;;2.37;2.17;;;;;;;19.31;40.83;100166.33;;;;-49
2019/12/07 01:56:10;;;;;;;2.56;2.36;;;;;;;19.30;40.92;100173.39;;;;-49
2019/12/07 01:59:10;;;;;;;2.45;2.25;;;;;;;19.29;40.91;100172.11;;;;-48
2019/12/07 02:02:10;;;;;;;2.49;2.29;;;;;;;19.28;40.91;100170.50;;;;-49
2019/12/07 02:05:10;;;;;;;2.40;2.20;;;;;;;19.26;40.95;100172.49;;;;-49
2019/12/07 02:08:10;;;;;;;2.49;2.29;;;;;;;19.26;40.95;100165.63;;;;-49
2019/12/07 02:11:10;;;;;;;2.69;2.10;;;;;;;19.24;40.91;100166.83;;;;-49
2019/12/07 02:14:10;;;;;;;2.42;2.22;;;;;;;19.24;40.97;100160.80;;;;-49
2019/12/07 02:17:10;;;;;;;2.59;2.39;;;;;;;19.22;40.94;100152.17;;;;-49
2019/12/07 02:20:10;;;;;;;5.79;2.30;;;;;;;19.22;40.97;100150.40;;;;-45
2019/12/07 02:23:10;;;;;;;2.17;1.97;;;;;;;19.22;40.98;100152.73;;;;-45
2019/12/07 02:26:10;;;;;;;2.26;2.06;;;;;;;19.19;40.99;100153.63;;;;-54
2019/12/07 02:29:10;;;;;;;2.41;2.21;;;;;;;19.18;41.01;100159.27;;;;-56
2019/12/07 02:32:10;;;;;;;2.39;2.19;;;;;;;19.17;41.01;100158.94;;;;-49
2019/12/07 02:35:39;;;;;;;2.48;2.28;;;;;;;19.16;41.04;100166.42;;;;-54
2019/12/07 02:38:13;;;;;;;2.25;2.09;;;;;;;19.16;41.02;100169.63;;;;-49
2019/12/07 02:41:10;;;;;;;2.22;2.02;;;;;;;19.14;41.06;100170.09;;;;-49
2019/12/07 02:44:10;;;;;;;2.35;2.15;;;;;;;19.14;41.01;100176.41;;;;-50
2019/12/07 02:47:10;;;;;;;2.28;2.08;;;;;;;19.14;41.03;100182.87;;;;-49
2019/12/07 02:50:10;;;;;;;2.39;2.05;;;;;;;19.12;41.05;100176.50;;;;-49
2019/12/07 02:53:10;;;;;;;2.34;2.14;;;;;;;19.11;41.04;100178.53;;;;-50
2019/12/07 02:56:10;;;;;;;2.28;2.08;;;;;;;19.09;41.12;100181.90;;;;-50
2019/12/07 02:59:10;;;;;;;2.32;2.12;;;;;;;19.09;41.06;100180.33;;;;-49
2019/12/07 03:02:10;;;;;;;2.35;2.15;;;;;;;19.08;41.09;100185.53;;;;-49
2019/12/07 03:05:10;;;;;;;2.20;2.02;;;;;;;19.07;41.09;100187.84;;;;-50
2019/12/07 03:08:10;;;;;;;2.67;2.09;;;;;;;19.06;41.11;100192.42;;;;-49
2019/12/07 03:11:10;;;;;;;1.94;1.84;;;;;;;19.05;41.12;100192.84;;;;-49
2019/12/07 03:14:10;;;;;;;2.14;2.00;;;;;;;19.04;41.15;100201.28;;;;-49
2019/12/07 03:17:10;;;;;;;2.29;2.08;;;;;;;19.03;41.15;100202.67;;;;-49
2019/12/07 03:20:10;;;;;;;2.31;2.11;;;;;;;19.03;41.17;100204.84;;;;-49
2019/12/07 03:23:10;;;;;;;2.23;2.03;;;;;;;19.02;41.17;100203.47;;;;-49
2019/12/07 03:26:10;;;;;;;2.31;2.11;;;;;;;19.01;41.15;100205.66;;;;-49
2019/12/07 03:29:10;;;;;;;2.51;2.09;;;;;;;19.01;41.17;100217.22;;;;-50
2019/12/07 03:32:10;;;;;;;2.07;1.91;;;;;;;19.00;41.19;100214.42;;;;-49
2019/12/07 03:35:10;;;;;;;2.03;1.92;;;;;;;19.00;41.17;100216.44;;;;-49
2019/12/07 03:38:10;;;;;;;3.10;1.97;;;;;;;18.99;41.14;100218.13;;;;-49
2019/12/07 03:41:10;;;;;;;2.23;2.03;;;;;;;18.98;41.21;100223.61;;;;-49
2019/12/07 03:44:10;;;;;;;2.27;2.07;;;;;;;18.97;41.21;100228.36;;;;-49
2019/12/07 03:47:10;;;;;;;2.36;2.11;;;;;;;18.96;41.21;100233.84;;;;-50
2019/12/07 03:50:10;;;;;;;2.17;1.97;;;;;;;18.96;41.24;100230.99;;;;-49
2019/12/07 03:53:10;;;;;;;2.13;1.93;;;;;;;18.95;41.22;100232.73;;;;-50
2019/12/07 03:56:10;;;;;;;2.20;2.00;;;;;;;18.94;41.23;100234.92;;;;-49
2019/12/07 03:59:10;;;;;;;2.21;2.00;;;;;;;18.93;41.21;100238.89;;;;-49
2019/12/07 04:02:10;;;;;;;1.95;1.85;;;;;;;18.93;41.26;100236.05;;;;-49
2019/12/07 04:05:10;;;;;;;1.90;1.80;;;;;;;18.93;41.25;100236.11;;;;-49
2019/12/07 04:08:10;;;;;;;1.89;1.79;;;;;;;18.91;41.23;100242.42;;;;-50
2019/12/07 04:11:10;;;;;;;2.22;2.02;;;;;;;18.90;41.25;100238.70;;;;-50
2019/12/07 04:14:10;;;;;;;2.10;1.90;;;;;;;18.90;41.31;100239.27;;;;-49
2019/12/07 04:17:16;;;;;;;2.09;1.89;;;;;;;18.89;41.27;100235.71;;;;-49
2019/12/07 04:20:10;;;;;;;1.97;1.84;;;;;;;18.88;41.34;100237.94;;;;-49
2019/12/07 04:23:10;;;;;;;2.48;1.98;;;;;;;18.87;41.33;100245.09;;;;-50
2019/12/07 04:26:10;;;;;;;2.19;1.99;;;;;;;18.86;41.34;100243.21;;;;-49
2019/12/07 04:29:10;;;;;;;2.13;1.93;;;;;;;18.87;41.31;100246.73;;;;-50
2019/12/07 04:32:10;;;;;;;2.11;1.91;;;;;;;18.86;41.32;100242.84;;;;-49
2019/12/07 04:35:10;;;;;;;1.93;1.76;;;;;;;18.85;41.30;100242.67;;;;-49
2019/12/07 04:38:10;;;;;;;2.03;1.85;;;;;;;18.85;41.36;100240.99;;;;-54
2019/12/07 04:41:10;;;;;;;1.94;1.81;;;;;;;18.84;41.39;100239.41;;;;-45
2019/12/07 04:44:10;;;;;;;2.11;1.91;;;;;;;18.84;41.35;100238.77;;;;-49
2019/12/07 04:47:10;;;;;;;2.13;1.93;;;;;;;18.85;41.40;100242.46;;;;-56
2019/12/07 04:50:10;;;;;;;1.83;1.73;;;;;;;18.85;41.38;100247.63;;;;-48
2019/12/07 04:53:10;;;;;;;1.89;1.79;;;;;;;18.87;41.37;100248.27;;;;-49
2019/12/07 04:56:10;;;;;;;1.89;1.79;;;;;;;18.89;41.34;100255.79;;;;-45
2019/12/07 04:59:10;;;;;;;1.99;1.87;;;;;;;18.91;41.28;100255.54;;;;-45
2019/12/07 05:02:10;;;;;;;2.03;1.91;;;;;;;18.93;41.40;100254.19;;;;-45
2019/12/07 05:05:10;;;;;;;1.91;1.80;;;;;;;18.94;41.47;100255.17;;;;-49
2019/12/07 05:08:10;;;;;;;2.03;1.91;;;;;;;18.96;41.50;100263.02;;;;-57
2019/12/07 05:11:10;;;;;;;1.90;1.80;;;;;;;18.99;41.48;100270.95;;;;-56
2019/12/07 05:14:10;;;;;;;1.90;1.80;;;;;;;19.02;41.46;100277.28;;;;-50
2019/12/07 05:17:10;;;;;;;1.80;1.70;;;;;;;19.05;41.49;100284.44;;;;-50
2019/12/07 05:20:10;;;;;;;1.80;1.70;;;;;;;19.09;41.44;100292.27;;;;-45
2019/12/07 05:23:10;;;;;;;1.83;1.73;;;;;;;19.15;41.45;100301.77;;;;-49
2019/12/07 05:26:10;;;;;;;1.90;1.80;;;;;;;19.17;41.46;100295.56;;;;-49
2019/12/07 05:29:10;;;;;;;1.79;1.69;;;;;;;19.20;41.52;100300.64;;;;-50
2019/12/07 05:32:10;;;;;;;1.80;1.70;;;;;;;19.23;41.44;100308.24;;;;-50
2019/12/07 05:35:10;;;;;;;1.73;1.63;;;;;;;19.27;41.50;100312.33;;;;-49
2019/12/07 05:38:10;;;;;;;1.96;1.85;;;;;;;19.30;41.50;100316.05;;;;-50
2019/12/07 05:41:10;;;;;;;1.91;1.81;;;;;;;19.32;41.57;100321.36;;;;-50
2019/12/07 05:44:10;;;;;;;1.79;1.69;;;;;;;19.36;41.57;100330.74;;;;-50
2019/12/07 05:47:10;;;;;;;1.83;1.73;;;;;;;19.40;41.59;100341.13;;;;-50
2019/12/07 05:50:10;;;;;;;1.71;1.61;;;;;;;19.44;41.59;100336.91;;;;-50
2019/12/07 05:53:10;;;;;;;1.80;1.70;;;;;;;19.47;41.63;100344.67;;;;-50
2019/12/07 05:59:10;;;;;;;1.80;1.70;;;;;;;19.54;41.59;100351.80;;;;-50
2019/12/07 06:02:11;;;;;;;1.69;1.59;;;;;;;19.57;41.65;100354.95;;;;-50
2019/12/07 06:05:10;;;;;;;1.79;1.69;;;;;;;19.60;41.67;100355.97;;;;-54
2019/12/07 06:11:22;;;;;;;1.63;1.53;;;;;;;19.64;41.63;100348.04;;;;-50
2019/12/07 06:14:10;;;;;;;1.69;1.59;;;;;;;19.66;41.68;100356.83;;;;-50
2019/12/07 06:17:10;;;;;;;1.67;1.57;;;;;;;19.68;41.59;100363.89;;;;-45
2019/12/07 06:20:10;;;;;;;1.79;1.69;;;;;;;19.70;41.57;100365.05;;;;-45
2019/12/07 06:23:10;;;;;;;1.74;1.64;;;;;;;19.71;41.65;100372.73;;;;-45
2019/12/07 06:26:10;;;;;;;1.70;1.60;;;;;;;19.74;41.57;100375.09;;;;-46
2019/12/07 06:29:10;;;;;;;1.82;1.70;;;;;;;19.76;41.57;100378.09;;;;-50
2019/12/07 06:32:10;;;;;;;1.70;1.60;;;;;;;19.77;41.58;100379.48;;;;-48
2019/12/07 06:35:10;;;;;;;1.91;1.75;;;;;;;19.80;41.57;100379.27;;;;-48
2019/12/07 06:38:10;;;;;;;1.56;1.46;;;;;;;19.83;41.53;100378.99;;;;-49
2019/12/07 06:41:10;;;;;;;1.69;1.59;;;;;;;19.85;41.57;100386.52;;;;-50
2019/12/07 06:44:10;;;;;;;1.79;1.69;;;;;;;19.87;41.54;100386.27;;;;-50
2019/12/07 06:47:10;;;;;;;1.80;1.70;;;;;;;19.88;41.50;100392.61;;;;-45
2019/12/07 06:50:10;;;;;;;1.76;1.66;;;;;;;19.91;41.52;100395.22;;;;-45
2019/12/07 06:53:10;;;;;;;1.69;1.59;;;;;;;19.93;41.48;100401.23;;;;-49
2019/12/07 06:56:54;;;;;;;1.80;1.70;;;;;;;19.94;41.46;100402.45;;;;-49
2019/12/07 06:59:10;;;;;;;1.78;1.68;;;;;;;19.95;41.43;100408.33;;;;-50
2019/12/07 07:02:10;;;;;;;1.70;1.60;;;;;;;19.96;41.45;100410.41;;;;-50
2019/12/07 07:05:10;;;;;;;1.72;1.58;;;;;;;19.97;41.41;100410.98;;;;-50
2019/12/07 07:08:10;;;;;;;1.65;1.55;;;;;;;19.98;41.41;100419.61;;;;-50
2019/12/07 07:11:10;;;;;;;1.76;1.66;;;;;;;19.98;41.39;100421.45;;;;-49
2019/12/07 07:14:31;;;;;;;1.80;1.70;;;;;;;20.00;41.39;100426.97;;;;-50
2019/12/07 07:17:14;;;;;;;1.70;1.60;;;;;;;20.01;41.42;100432.98;;;;-54
2019/12/07 07:20:10;;;;;;;1.79;1.69;;;;;;;20.02;41.39;100433.36;;;;-54
2019/12/07 07:23:10;;;;;;;1.70;1.60;;;;;;;20.03;41.40;100433.80;;;;-54
2019/12/07 07:26:10;;;;;;;1.61;1.50;;;;;;;20.04;41.42;100442.90;;;;-50
2019/12/07 07:29:10;;;;;;;1.60;1.50;;;;;;;20.07;41.35;100446.38;;;;-50
2019/12/07 07:32:10;;;;;;;1.70;1.60;;;;;;;20.09;41.30;100445.95;;;;-45
2019/12/07 07:35:10;;;;;;;1.71;1.61;;;;;;;20.10;41.31;100449.69;;;;-45
2019/12/07 07:38:10;;;;;;;1.69;1.59;;;;;;;20.12;41.41;100453.69;;;;-45
2019/12/07 07:41:10;;;;;;;1.62;1.52;;;;;;;20.13;41.35;100454.07;;;;-45
2019/12/07 07:44:10;;;;;;;1.81;1.68;;;;;;;20.15;41.32;100456.27;;;;-45
2019/12/07 07:47:10;;;;;;;1.63;1.53;;;;;;;20.16;41.29;100463.75;;;;-46
2019/12/07 07:50:10;;;;;;;1.60;1.50;;;;;;;20.17;41.28;100471.50;;;;-45
2019/12/07 07:53:10;;;;;;;1.69;1.59;;;;;;;20.18;41.26;100474.33;;;;-45
2019/12/07 07:56:10;;;;;;;1.76;1.63;;;;;;;20.20;41.33;100479.17;;;;-45
2019/12/07 07:59:10;;;;;;;1.60;1.50;;;;;;;20.22;41.30;100491.50;;;;-45
2019/12/07 08:02:10;;;;;;;1.70;1.60;;;;;;;20.23;41.25;100492.39;;;;-45
2019/12/07 08:05:10;;;;;;;1.57;1.47;;;;;;;20.24;41.28;100490.92;;;;-46
2019/12/07 08:08:10;;;;;;;1.71;1.53;;;;;;;20.25;41.21;100504.20;;;;-45
2019/12/07 08:11:10;;;;;;;1.66;1.56;;;;;;;20.27;41.28;100514.52;;;;-45
2019/12/07 08:14:10;;;;;;;1.51;1.41;;;;;;;20.28;41.23;100518.92;;;;-45
2019/12/07 08:17:09;;;;;;;1.53;1.43;;;;;;;20.29;41.25;100524.50;;;;-46
2019/12/07 08:20:10;;;;;;;1.59;1.49;;;;;;;20.31;41.21;100530.28;;;;-45
2019/12/07 08:23:10;;;;;;;1.56;1.46;;;;;;;20.32;41.25;100533.92;;;;-46
2019/12/07 08:26:10;;;;;;;1.60;1.50;;;;;;;20.33;41.25;100533.62;;;;-45
2019/12/07 08:29:10;;;;;;;1.60;1.50;;;;;;;20.33;41.22;100534.73;;;;-45
2019/12/07 08:32:10;;;;;;;1.44;1.34;;;;;;;20.35;41.21;100538.34;;;;-45
2019/12/07 08:35:10;;;;;;;1.59;1.49;;;;;;;20.35;41.18;100531.47;;;;-54
2019/12/07 08:38:10;;;;;;;1.70;1.60;;;;;;;20.37;41.19;100535.30;;;;-54
2019/12/07 08:41:17;;;;;;;1.50;1.40;;;;;;;20.38;41.14;100528.06;;;;-50
2019/12/07 08:47:13;;;;;;;1.57;1.47;;;;;;;20.39;41.18;100523.41;;;;-50
2019/12/07 08:50:10;;;;;;;1.60;1.50;;;;;;;20.40;41.12;100534.70;;;;-50
2019/12/07 08:53:10;;;;;;;1.61;1.51;;;;;;;20.41;41.11;100534.91;;;;-50
2019/12/07 08:56:10;;;;;;;1.55;1.45;;;;;;;20.42;41.16;100538.03;;;;-50
2019/12/07 08:59:10;;;;;;;1.59;1.49;;;;;;;20.42;41.08;100541.99;;;;-50
2019/12/07 09:02:10;;;;;;;1.55;1.45;;;;;;;20.43;41.07;100541.70;;;;-50
2019/12/07 09:05:10;;;;;;;1.50;1.40;;;;;;;20.44;41.05;100545.83;;;;-50
2019/12/07 09:08:10;;;;;;;1.53;1.43;;;;;;;20.44;41.11;100550.46;;;;-50
2019/12/07 09:11:10;;;;;;;1.60;1.50;;;;;;;20.45;41.04;100555.59;;;;-54
2019/12/07 09:14:10;;;;;;;1.60;1.50;;;;;;;20.45;41.03;100559.39;;;;-55
2019/12/07 09:17:10;;;;;;;1.53;1.43;;;;;;;20.46;41.08;100566.31;;;;-54
2019/12/07 09:20:10;;;;;;;1.50;1.40;;;;;;;20.49;40.99;100567.75;;;;-54
2019/12/07 09:23:10;;;;;;;1.51;1.41;;;;;;;20.48;41.06;100568.31;;;;-54
2019/12/07 09:26:10;;;;;;;1.44;1.34;;;;;;;20.48;41.09;100568.14;;;;-50
2019/12/07 09:29:10;;;;;;;1.53;1.43;;;;;;;20.49;41.02;100566.00;;;;-50
2019/12/07 09:32:10;;;;;;;1.55;1.45;;;;;;;20.49;41.03;100563.59;;;;-50
2019/12/07 09:35:10;;;;;;;1.40;1.30;;;;;;;20.50;41.02;100568.23;;;;-50
2019/12/07 09:38:10;;;;;;;1.51;1.41;;;;;;;20.51;41.01;100563.51;;;;-50
2019/12/07 09:41:10;;;;;;;1.43;1.33;;;;;;;20.53;41.07;100564.29;;;;-50
2019/12/07 09:44:10;;;;;;;1.51;1.41;;;;;;;20.54;41.06;100569.70;;;;-50
2019/12/07 09:47:10;;;;;;;1.50;1.40;;;;;;;20.54;41.04;100575.21;;;;-50
2019/12/07 09:50:10;;;;;;;1.57;1.44;;;;;;;20.56;41.03;100581.97;;;;-50
2019/12/07 09:53:10;;;;;;;1.50;1.40;;;;;;;20.57;41.03;100585.03;;;;-50
2019/12/07 09:56:10;;;;;;;1.68;1.58;;;;;;;20.57;41.02;100580.23;;;;-50
2019/12/07 09:59:10;;;;;;;1.50;1.40;;;;;;;20.58;41.01;100584.23;;;;-50
2019/12/07 10:02:10;;;;;;;1.47;1.37;;;;;;;20.58;41.05;100586.92;;;;-50
2019/12/07 10:05:10;;;;;;;1.45;1.35;;;;;;;20.59;40.98;100586.19;;;;-49
2019/12/07 10:08:10;;;;;;;3.47;1.40;;;;;;;20.57;41.30;100591.74;;;;-53
2019/12/07 10:11:10;;;;;;;6.15;1.81;;;;;;;20.57;41.38;100591.14;;;;-53
2019/12/07 10:14:10;;;;;;;2.09;1.56;;;;;;;20.60;41.30;100588.75;;;;-53
2019/12/07 10:17:10;;;;;;;3.28;1.58;;;;;;;20.63;41.42;100585.02;;;;-52
2019/12/07 10:20:10;;;;;;;1.93;1.50;;;;;;;20.63;41.16;100584.51;;;;-52
2019/12/07 10:23:10;;;;;;;3.70;1.50;;;;;;;20.62;41.00;100583.06;;;;-52
2019/12/07 10:26:10;;;;;;;5.65;1.50;;;;;;;20.67;41.67;100590.05;;;;-51
2019/12/07 10:29:10;;;;;;;2.09;1.46;;;;;;;20.68;42.05;100578.17;;;;-51
2019/12/07 10:32:10;;;;;;;2.59;1.50;;;;;;;20.71;41.88;100585.52;;;;-50
2019/12/07 10:35:10;;;;;;;2.85;1.49;;;;;;;20.72;41.96;100580.86;;;;-57
2019/12/07 10:38:10;;;;;;;2.05;1.47;;;;;;;20.75;42.02;100581.55;;;;-58
2019/12/07 10:41:10;;;;;;;1.56;1.46;;;;;;;20.77;42.10;100584.02;;;;-54
2019/12/07 10:44:10;;;;;;;1.61;1.51;;;;;;;20.79;42.20;100583.56;;;;-52
2019/12/07 10:47:12;;;;;;;1.97;1.34;;;;;;;20.81;41.92;100583.58;;;;-59
2019/12/07 10:50:10;;;;;;;2.85;1.52;;;;;;;20.82;42.12;100577.88;;;;-51
2019/12/07 10:53:10;;;;;;;3.23;1.65;;;;;;;20.80;41.40;100583.67;;;;-50
2019/12/07 10:56:10;;;;;;;2.84;1.54;;;;;;;20.79;41.71;100583.59;;;;-53
2019/12/07 10:59:10;;;;;;;5.57;1.80;;;;;;;20.82;41.92;100586.06;;;;-58
2019/12/07 11:02:10;;;;;;;2.94;1.57;;;;;;;20.83;41.87;100585.81;;;;-52
2019/12/07 11:05:10;;;;;;;3.43;1.43;;;;;;;20.86;41.92;100585.33;;;;-52
2019/12/07 11:08:10;;;;;;;3.48;1.61;;;;;;;20.90;42.15;100587.91;;;;-43
2019/12/07 11:11:10;;;;;;;1.67;1.48;;;;;;;20.91;42.03;100593.39;;;;-47
2019/12/07 11:14:10;;;;;;;2.25;1.47;;;;;;;20.93;41.80;100592.96;;;;-51
2019/12/07 11:17:10;;;;;;;3.70;1.55;;;;;;;20.95;41.93;100591.47;;;;-44
2019/12/07 11:20:10;;;;;;;1.73;1.53;;;;;;;20.96;42.10;100593.77;;;;-58
2019/12/07 11:23:10;;;;;;;1.75;1.53;;;;;;;20.96;41.65;100592.42;;;;-59
2019/12/07 11:26:10;;;;;;;3.02;1.57;;;;;;;20.99;42.25;100596.50;;;;-51
2019/12/07 11:29:10;;;;;;;2.91;1.39;;;;;;;20.99;42.00;100592.47;;;;-51
2019/12/07 11:32:10;;;;;;;2.07;1.55;;;;;;;21.02;42.08;100591.08;;;;-51
2019/12/07 11:35:10;;;;;;;1.83;1.35;;;;;;;21.04;41.99;100586.86;;;;-52
2019/12/07 11:38:10;;;;;;;2.61;1.43;;;;;;;21.06;41.98;100585.83;;;;-50
2019/12/07 11:41:10;;;;;;;1.95;1.50;;;;;;;21.07;42.10;100581.27;;;;-51
2019/12/07 11:44:10;;;;;;;5.07;1.69;;;;;;;21.10;41.95;100581.83;;;;-51
2019/12/07 11:47:10;;;;;;;3.01;1.47;;;;;;;21.14;42.50;100578.87;;;;-52
2019/12/07 11:50:10;;;;;;;2.57;1.52;;;;;;;21.17;42.26;100578.81;;;;-52
2019/12/07 11:53:10;;;;;;;2.56;1.57;;;;;;;21.18;42.43;100574.55;;;;-48
2019/12/07 11:56:10;;;;;;;2.41;1.53;;;;;;;21.15;41.56;100571.18;;;;-46
2019/12/07 11:59:10;;;;;;;1.64;1.51;;;;;;;21.14;41.64;100573.83;;;;-46
2019/12/07 12:02:10;;;;;;;2.38;1.57;;;;;;;21.13;41.45;100572.78;;;;-46
2019/12/07 12:05:10;;;;;;;2.92;1.60;;;;;;;21.13;41.50;100571.44;;;;-46
2019/12/07 12:08:10;;;;;;;2.64;1.40;;;;;;;21.12;41.42;100573.24;;;;-46
2019/12/07 12:11:10;;;;;;;6.65;1.56;;;;;;;21.11;41.41;100567.42;;;;-46
2019/12/07 12:14:10;;;;;;;3.22;1.54;;;;;;;21.11;41.34;100562.19;;;;-46
2019/12/07 12:17:10;;;;;;;1.58;1.43;;;;;;;21.10;41.34;100567.22;;;;-46
2019/12/07 12:20:10;;;;;;;3.12;1.40;;;;;;;21.11;41.29;100571.92;;;;-46
2019/12/07 12:23:10;;;;;;;2.17;1.38;;;;;;;21.12;41.33;100567.53;;;;-47
2019/12/07 12:26:10;;;;;;;2.28;1.47;;;;;;;21.11;41.30;100557.59;;;;-47
2019/12/07 12:29:10;;;;;;;2.01;1.45;;;;;;;21.11;41.32;100560.38;;;;-47
2019/12/07 12:32:10;;;;;;;1.76;1.37;;;;;;;21.10;41.25;100561.11;;;;-49
2019/12/07 12:35:10;;;;;;;2.03;1.45;;;;;;;21.11;41.24;100561.01;;;;-48
2019/12/07 12:38:10;;;;;;;3.03;1.50;;;;;;;21.09;41.23;100559.22;;;;-47
2019/12/07 12:41:10;;;;;;;2.87;1.61;;;;;;;21.10;41.23;100558.32;;;;-47
2019/12/07 12:47:19;;;;;;;1.50;1.39;;;;;;;21.08;41.16;100556.86;;;;-48
2019/12/07 12:50:09;;;;;;;2.50;1.40;;;;;;;21.07;41.19;100553.09;;;;-47
2019/12/07 12:53:09;;;;;;;3.05;1.30;;;;;;;21.08;41.19;100556.30;;;;-47
2019/12/07 12:56:09;;;;;;;2.21;1.50;;;;;;;21.07;41.21;100556.92;;;;-47
2019/12/07 12:59:10;;;;;;;1.63;1.50;;;;;;;21.06;41.19;100552.28;;;;-47
2019/12/07 13:02:09;;;;;;;3.24;1.60;;;;;;;21.06;41.23;100551.11;;;;-48
2019/12/07 13:05:09;;;;;;;1.79;1.30;;;;;;;21.06;41.20;100556.15;;;;-47
2019/12/07 13:08:09;;;;;;;1.85;1.27;;;;;;;21.06;41.18;100554.13;;;;-47
2019/12/07 13:11:09;;;;;;;1.43;1.33;;;;;;;21.05;41.16;100557.22;;;;-47
2019/12/07 13:14:09;;;;;;;1.61;1.33;;;;;;;21.06;41.17;100563.70;;;;-47
2019/12/07 13:17:09;;;;;;;1.65;1.41;;;;;;;21.06;41.16;100569.85;;;;-46
2019/12/07 13:20:09;;;;;;;2.16;1.51;;;;;;;21.07;41.15;100571.09;;;;-47
2019/12/07 13:23:09;;;;;;;1.56;1.41;;;;;;;21.06;41.19;100570.15;;;;-47
2019/12/07 13:26:09;;;;;;;2.06;1.42;;;;;;;21.06;41.15;100576.70;;;;-47
2019/12/07 13:29:10;;;;;;;2.59;1.42;;;;;;;21.05;41.17;100573.67;;;;-48
2019/12/07 13:32:09;;;;;;;1.57;1.40;;;;;;;21.03;41.11;100577.19;;;;-47
2019/12/07 13:35:09;;;;;;;5.84;2.52;;;;;;;21.04;40.80;100580.88;;;;-48
2019/12/07 13:38:11;;;;;;;4.19;2.05;;;;;;;21.08;41.69;100584.23;;;;-46
2019/12/07 13:41:10;;;;;;;3.40;1.85;;;;;;;21.09;42.54;100584.24;;;;-51
2019/12/07 13:44:09;;;;;;;9.03;1.86;;;;;;;21.12;42.46;100590.14;;;;-47
2019/12/07 13:47:09;;;;;;;3.25;1.77;;;;;;;21.11;41.66;100588.76;;;;-49
2019/12/07 13:50:10;;;;;;;6.78;1.91;;;;;;;21.09;41.86;100591.50;;;;-45
2019/12/07 13:53:10;;;;;;;4.15;2.81;;;;;;;21.02;41.31;100596.12;;;;-47
2019/12/07 13:56:10;;;;;;;6.47;3.28;;;;;;;20.99;41.44;100598.69;;;;-45
2019/12/07 13:59:09;;;;;;;6.05;3.72;;;;;;;20.97;41.56;100597.93;;;;-45
2019/12/07 14:02:10;;;;;;;5.66;3.51;;;;;;;20.94;41.70;100591.53;;;;-47
2019/12/07 14:05:09;;;;;;;7.30;3.69;;;;;;;20.94;41.94;100603.28;;;;-48
2019/12/07 14:08:10;;;;;;;4.79;3.50;;;;;;;20.93;41.89;100601.29;;;;-45
2019/12/07 14:11:09;;;;;;;7.28;3.20;;;;;;;20.94;42.07;100599.48;;;;-44
2019/12/07 14:14:09;;;;;;;6.04;3.07;;;;;;;21.00;42.26;100607.28;;;;-44
2019/12/07 14:17:09;;;;;;;4.43;2.66;;;;;;;21.05;42.35;100613.60;;;;-49
2019/12/07 14:20:09;;;;;;;3.61;2.63;;;;;;;21.09;42.23;100612.31;;;;-50
2019/12/07 14:23:09;;;;;;;4.25;2.61;;;;;;;21.10;41.77;100625.05;;;;-46
2019/12/07 14:26:09;;;;;;;5.62;2.67;;;;;;;21.09;41.66;100637.37;;;;-46
2019/12/07 14:29:09;;;;;;;3.86;2.70;;;;;;;21.13;41.75;100639.22;;;;-46
2019/12/07 14:32:09;;;;;;;5.61;2.52;;;;;;;21.13;41.55;100640.73;;;;-46
2019/12/07 14:35:09;;;;;;;6.93;2.62;;;;;;;21.12;41.50;100644.12;;;;-46
2019/12/07 14:38:09;;;;;;;4.56;2.55;;;;;;;21.12;41.46;100635.88;;;;-46
2019/12/07 14:41:09;;;;;;;3.63;2.55;;;;;;;21.13;41.49;100627.09;;;;-46
2019/12/07 14:44:09;;;;;;;5.80;2.61;;;;;;;21.12;41.43;100629.50;;;;-45
2019/12/07 14:47:09;;;;;;;3.93;2.61;;;;;;;21.13;41.44;100647.58;;;;-46
2019/12/07 14:50:09;;;;;;;3.57;2.19;;;;;;;21.13;41.46;100651.44;;;;-45
2019/12/07 14:53:09;;;;;;;4.56;2.50;;;;;;;21.13;41.40;100646.23;;;;-46
2019/12/07 14:56:09;;;;;;;4.20;2.35;;;;;;;21.13;41.37;100655.07;;;;-45
2019/12/07 14:59:09;;;;;;;4.35;2.47;;;;;;;21.14;41.39;100658.13;;;;-46
2019/12/07 15:02:24;;;;;;;3.60;2.30;;;;;;;21.14;41.40;100654.88;;;;-46
2019/12/07 15:08:09;;;;;;;3.51;2.28;;;;;;;21.15;41.34;100653.48;;;;-46
2019/12/07 15:11:09;;;;;;;2.87;2.23;;;;;;;21.15;41.36;100652.47;;;;-46
2019/12/07 15:14:09;;;;;;;4.05;2.17;;;;;;;21.16;41.35;100658.45;;;;-46
2019/12/07 15:17:09;;;;;;;4.18;2.28;;;;;;;21.15;41.37;100648.38;;;;-45
2019/12/07 15:20:09;;;;;;;2.95;2.09;;;;;;;21.15;41.34;100646.59;;;;-47
2019/12/07 15:23:09;;;;;;;3.80;2.13;;;;;;;21.14;41.34;100643.02;;;;-46
2019/12/07 15:26:09;;;;;;;3.89;2.26;;;;;;;21.14;41.37;100643.86;;;;-46
2019/12/07 15:29:09;;;;;;;2.83;2.20;;;;;;;21.14;41.34;100650.81;;;;-46
2019/12/07 15:32:09;;;;;;;3.93;2.20;;;;;;;21.14;41.36;100652.83;;;;-46
2019/12/07 15:35:09;;;;;;;2.54;2.10;;;;;;;21.14;41.36;100650.58;;;;-46
2019/12/07 15:38:09;;;;;;;2.55;2.15;;;;;;;21.14;41.31;100645.44;;;;-45
2019/12/07 15:41:09;;;;;;;3.29;2.11;;;;;;;21.13;41.31;100643.55;;;;-46
2019/12/07 15:44:09;;;;;;;2.59;1.95;;;;;;;21.14;41.38;100644.27;;;;-46
2019/12/07 15:47:09;;;;;;;3.61;2.09;;;;;;;21.12;41.37;100640.93;;;;-47
2019/12/07 15:50:09;;;;;;;2.19;1.93;;;;;;;21.13;41.34;100640.97;;;;-49
2019/12/07 15:53:10;;;;;;;2.69;2.09;;;;;;;21.17;41.92;100641.13;;;;-45
2019/12/07 15:56:09;;;;;;;3.25;2.21;;;;;;;21.19;42.12;100644.47;;;;-47
2019/12/07 15:59:09;;;;;;;3.54;2.10;;;;;;;21.22;41.73;100656.28;;;;-44
2019/12/07 16:02:09;;;;;;;2.29;1.97;;;;;;;21.24;41.60;100660.63;;;;-44
2019/12/07 16:05:09;;;;;;;2.37;1.97;;;;;;;21.23;41.47;100663.71;;;;-45
2019/12/07 16:08:09;;;;;;;3.53;2.18;;;;;;;21.24;41.38;100663.48;;;;-45
2019/12/07 16:11:09;;;;;;;2.99;1.97;;;;;;;21.24;41.37;100673.56;;;;-44
2019/12/07 16:14:09;;;;;;;2.23;2.00;;;;;;;21.24;41.34;100682.62;;;;-44
2019/12/07 16:17:10;;;;;;;3.15;2.17;;;;;;;21.23;41.31;100682.19;;;;-44
2019/12/07 16:20:09;;;;;;;2.90;2.00;;;;;;;21.24;41.26;100689.45;;;;-44
2019/12/07 16:23:09;;;;;;;2.96;2.01;;;;;;;21.24;41.26;100690.12;;;;-44
2019/12/07 16:26:09;;;;;;;2.61;2.00;;;;;;;21.24;41.23;100693.21;;;;-44
2019/12/07 16:29:09;;;;;;;2.68;2.14;;;;;;;21.24;41.23;100692.88;;;;-45
2019/12/07 16:32:09;;;;;;;2.38;2.09;;;;;;;21.23;41.20;100695.45;;;;-44
2019/12/07 16:35:09;;;;;;;3.83;2.02;;;;;;;21.27;41.26;100702.14;;;;-49
2019/12/07 16:38:09;;;;;;;3.96;2.04;;;;;;;21.28;41.88;100708.56;;;;-53
2019/12/07 16:41:10;;;;;;;4.19;2.06;;;;;;;21.30;41.94;100711.03;;;;-45
2019/12/07 16:44:09;;;;;;;2.35;1.87;;;;;;;21.36;42.01;100707.31;;;;-45
2019/12/07 16:47:09;;;;;;;2.54;1.90;;;;;;;21.34;41.58;100714.63;;;;-45
2019/12/07 16:50:10;;;;;;;2.36;1.90;;;;;;;21.32;41.50;100717.63;;;;-44
2019/12/07 16:53:09;;;;;;;4.29;2.02;;;;;;;21.35;41.57;100726.59;;;;-47
2019/12/07 16:56:09;;;;;;;3.02;2.02;;;;;;;21.35;41.52;100729.45;;;;-45
2019/12/07 16:59:09;;;;;;;4.50;2.06;;;;;;;21.34;41.41;100736.80;;;;-46